sensor_id;sensor_type;location;lat;lon;timestamp;P1;durP1;ratioP1;P2;durP2;ratioP2
19828;SDS011;10075;50.924;4.396;2022-12-07T00:01:08;19.10;;;11.87;;
19828;SDS011;10075;50.924;4.396;2022-12-07T00:03:36;14.93;;;11.93;;
19828;SDS011;10075;50.924;4.396;2022-12-07T00:06:06;17.07;;;11.83;;
19828;SDS011;10075;50.924;4.396;2022-12-07T00:08:34;16.73;;;12.20;;
19828;SDS011;10075;50.924;4.396;2022-12-07T00:11:03;17.53;;;12.87;;
19828;SDS011;10075;50.924;4.396;2022-12-07T00:13:31;20.97;;;12.27;;
19828;SDS011;10075;50.924;4.396;2022-12-07T00:16:00;22.60;;;14.33;;
19828;SDS011;10075;50.924;4.396;2022-12-07T00:18:28;22.50;;;14.27;;
19828;SDS011;10075;50.924;4.396;2022-12-07T00:20:58;22.00;;;14.77;;
19828;SDS011;10075;50.924;4.396;2022-12-07T00:23:26;21.63;;;14.63;;
19828;SDS011;10075;50.924;4.396;2022-12-07T00:25:53;24.13;;;15.87;;
19828;SDS011;10075;50.924;4.396;2022-12-07T00:28:22;21.07;;;16.03;;
19828;SDS011;10075;50.924;4.396;2022-12-07T00:30:49;25.77;;;15.63;;
19828;SDS011;10075;50.924;4.396;2022-12-07T00:33:16;23.80;;;15.80;;
19828;SDS011;10075;50.924;4.396;2022-12-07T00:35:43;21.87;;;15.67;;
19828;SDS011;10075;50.924;4.396;2022-12-07T00:38:10;26.00;;;16.80;;
19828;SDS011;10075;50.924;4.396;2022-12-07T00:40:37;24.73;;;15.87;;
19828;SDS011;10075;50.924;4.396;2022-12-07T00:43:04;25.17;;;15.50;;
19828;SDS011;10075;50.924;4.396;2022-12-07T00:45:32;26.67;;;15.90;;
19828;SDS011;10075;50.924;4.396;2022-12-07T00:48:00;24.10;;;14.90;;
19828;SDS011;10075;50.924;4.396;2022-12-07T00:50:27;21.33;;;15.63;;
19828;SDS011;10075;50.924;4.396;2022-12-07T00:52:54;22.27;;;13.97;;
19828;SDS011;10075;50.924;4.396;2022-12-07T00:55:21;20.37;;;14.57;;
19828;SDS011;10075;50.924;4.396;2022-12-07T00:57:48;24.17;;;14.87;;
19828;SDS011;10075;50.924;4.396;2022-12-07T01:00:15;22.67;;;14.53;;
19828;SDS011;10075;50.924;4.396;2022-12-07T01:02:44;25.13;;;15.23;;
19828;SDS011;10075;50.924;4.396;2022-12-07T01:05:11;25.83;;;15.73;;
19828;SDS011;10075;50.924;4.396;2022-12-07T01:07:38;26.10;;;15.57;;
19828;SDS011;10075;50.924;4.396;2022-12-07T01:10:06;22.90;;;16.37;;
19828;SDS011;10075;50.924;4.396;2022-12-07T01:12:33;22.13;;;15.73;;
19828;SDS011;10075;50.924;4.396;2022-12-07T01:15:00;22.17;;;15.03;;
19828;SDS011;10075;50.924;4.396;2022-12-07T01:17:27;25.13;;;15.70;;
19828;SDS011;10075;50.924;4.396;2022-12-07T01:19:56;24.53;;;15.50;;
19828;SDS011;10075;50.924;4.396;2022-12-07T01:22:23;20.77;;;14.53;;
19828;SDS011;10075;50.924;4.396;2022-12-07T01:24:50;20.70;;;14.83;;
19828;SDS011;10075;50.924;4.396;2022-12-07T01:27:17;23.43;;;15.83;;
19828;SDS011;10075;50.924;4.396;2022-12-07T01:29:44;22.13;;;15.23;;
19828;SDS011;10075;50.924;4.396;2022-12-07T01:32:11;24.93;;;15.00;;
19828;SDS011;10075;50.924;4.396;2022-12-07T01:34:38;22.67;;;14.53;;
19828;SDS011;10075;50.924;4.396;2022-12-07T01:37:06;25.20;;;16.17;;
19828;SDS011;10075;50.924;4.396;2022-12-07T01:39:33;22.03;;;15.63;;
19828;SDS011;10075;50.924;4.396;2022-12-07T01:42:00;19.80;;;15.23;;
19828;SDS011;10075;50.924;4.396;2022-12-07T01:44:28;26.17;;;15.07;;
19828;SDS011;10075;50.924;4.396;2022-12-07T01:46:57;19.93;;;13.57;;
19828;SDS011;10075;50.924;4.396;2022-12-07T01:49:27;20.93;;;13.57;;
19828;SDS011;10075;50.924;4.396;2022-12-07T01:52:00;17.53;;;12.83;;
19828;SDS011;10075;50.924;4.396;2022-12-07T01:54:34;23.80;;;13.53;;
19828;SDS011;10075;50.924;4.396;2022-12-07T01:57:02;21.07;;;12.67;;
19828;SDS011;10075;50.924;4.396;2022-12-07T01:59:30;17.57;;;11.63;;
19828;SDS011;10075;50.924;4.396;2022-12-07T02:01:57;17.30;;;11.97;;
19828;SDS011;10075;50.924;4.396;2022-12-07T02:04:25;21.57;;;12.73;;
19828;SDS011;10075;50.924;4.396;2022-12-07T02:06:52;19.23;;;13.10;;
19828;SDS011;10075;50.924;4.396;2022-12-07T02:09:21;23.17;;;13.00;;
19828;SDS011;10075;50.924;4.396;2022-12-07T02:11:49;24.07;;;14.07;;
19828;SDS011;10075;50.924;4.396;2022-12-07T02:14:17;20.30;;;13.63;;
19828;SDS011;10075;50.924;4.396;2022-12-07T02:16:47;16.73;;;12.37;;
19828;SDS011;10075;50.924;4.396;2022-12-07T02:19:32;17.53;;;12.43;;
19828;SDS011;10075;50.924;4.396;2022-12-07T02:22:18;18.77;;;14.20;;
19828;SDS011;10075;50.924;4.396;2022-12-07T02:25:00;16.63;;;12.80;;
19828;SDS011;10075;50.924;4.396;2022-12-07T02:27:37;21.77;;;12.57;;
19828;SDS011;10075;50.924;4.396;2022-12-07T02:30:11;21.27;;;12.47;;
19828;SDS011;10075;50.924;4.396;2022-12-07T02:32:42;18.17;;;12.17;;
19828;SDS011;10075;50.924;4.396;2022-12-07T02:35:17;22.77;;;13.50;;
19828;SDS011;10075;50.924;4.396;2022-12-07T02:37:53;20.60;;;12.77;;
19828;SDS011;10075;50.924;4.396;2022-12-07T02:40:29;18.17;;;10.73;;
19828;SDS011;10075;50.924;4.396;2022-12-07T02:43:02;18.27;;;11.10;;
19828;SDS011;10075;50.924;4.396;2022-12-07T02:45:36;17.23;;;10.40;;
19828;SDS011;10075;50.924;4.396;2022-12-07T02:48:07;19.30;;;10.90;;
19828;SDS011;10075;50.924;4.396;2022-12-07T02:50:36;14.20;;;10.00;;
19828;SDS011;10075;50.924;4.396;2022-12-07T02:53:03;16.90;;;10.87;;
19828;SDS011;10075;50.924;4.396;2022-12-07T02:55:31;16.47;;;10.60;;
19828;SDS011;10075;50.924;4.396;2022-12-07T02:58:09;17.30;;;9.60;;
19828;SDS011;10075;50.924;4.396;2022-12-07T03:00:50;20.43;;;10.60;;
19828;SDS011;10075;50.924;4.396;2022-12-07T03:03:25;16.07;;;9.10;;
19828;SDS011;10075;50.924;4.396;2022-12-07T03:05:58;16.37;;;8.90;;
19828;SDS011;10075;50.924;4.396;2022-12-07T03:08:44;12.73;;;8.83;;
19828;SDS011;10075;50.924;4.396;2022-12-07T03:11:19;11.83;;;8.37;;
19828;SDS011;10075;50.924;4.396;2022-12-07T03:13:54;13.60;;;8.80;;
19828;SDS011;10075;50.924;4.396;2022-12-07T03:16:27;16.70;;;8.97;;
19828;SDS011;10075;50.924;4.396;2022-12-07T03:18:58;14.20;;;8.40;;
19828;SDS011;10075;50.924;4.396;2022-12-07T03:21:29;18.43;;;9.87;;
19828;SDS011;10075;50.924;4.396;2022-12-07T03:24:00;13.37;;;8.43;;
19828;SDS011;10075;50.924;4.396;2022-12-07T03:26:34;16.40;;;9.93;;
19828;SDS011;10075;50.924;4.396;2022-12-07T03:29:05;20.03;;;12.00;;
19828;SDS011;10075;50.924;4.396;2022-12-07T03:31:40;19.77;;;11.97;;
19828;SDS011;10075;50.924;4.396;2022-12-07T03:34:10;19.23;;;11.10;;
19828;SDS011;10075;50.924;4.396;2022-12-07T03:36:43;15.53;;;10.87;;
19828;SDS011;10075;50.924;4.396;2022-12-07T03:39:18;20.17;;;10.50;;
19828;SDS011;10075;50.924;4.396;2022-12-07T03:41:49;19.27;;;10.43;;
19828;SDS011;10075;50.924;4.396;2022-12-07T03:44:18;17.17;;;10.13;;
19828;SDS011;10075;50.924;4.396;2022-12-07T03:46:49;17.07;;;9.63;;
19828;SDS011;10075;50.924;4.396;2022-12-07T03:49:23;19.03;;;10.80;;
19828;SDS011;10075;50.924;4.396;2022-12-07T03:51:54;15.17;;;9.43;;
19828;SDS011;10075;50.924;4.396;2022-12-07T03:54:28;18.07;;;10.10;;
19828;SDS011;10075;50.924;4.396;2022-12-07T03:56:59;15.60;;;9.40;;
19828;SDS011;10075;50.924;4.396;2022-12-07T03:59:28;19.13;;;10.80;;
19828;SDS011;10075;50.924;4.396;2022-12-07T04:02:01;19.23;;;11.33;;
19828;SDS011;10075;50.924;4.396;2022-12-07T04:04:29;18.10;;;11.37;;
19828;SDS011;10075;50.924;4.396;2022-12-07T04:06:57;17.83;;;11.07;;
19828;SDS011;10075;50.924;4.396;2022-12-07T04:09:24;16.27;;;11.03;;
19828;SDS011;10075;50.924;4.396;2022-12-07T04:11:51;19.43;;;12.03;;
19828;SDS011;10075;50.924;4.396;2022-12-07T04:14:18;20.50;;;12.33;;
19828;SDS011;10075;50.924;4.396;2022-12-07T04:16:45;20.60;;;13.20;;
19828;SDS011;10075;50.924;4.396;2022-12-07T04:19:15;25.93;;;13.57;;
19828;SDS011;10075;50.924;4.396;2022-12-07T04:21:43;19.97;;;12.53;;
19828;SDS011;10075;50.924;4.396;2022-12-07T04:24:11;17.50;;;12.07;;
19828;SDS011;10075;50.924;4.396;2022-12-07T04:26:39;18.20;;;11.47;;
19828;SDS011;10075;50.924;4.396;2022-12-07T04:29:06;23.17;;;13.30;;
19828;SDS011;10075;50.924;4.396;2022-12-07T04:31:33;21.93;;;12.00;;
19828;SDS011;10075;50.924;4.396;2022-12-07T04:34:00;20.47;;;12.60;;
19828;SDS011;10075;50.924;4.396;2022-12-07T04:36:30;20.37;;;11.97;;
19828;SDS011;10075;50.924;4.396;2022-12-07T04:38:57;18.00;;;11.20;;
19828;SDS011;10075;50.924;4.396;2022-12-07T04:41:25;15.07;;;10.37;;
19828;SDS011;10075;50.924;4.396;2022-12-07T04:43:53;20.53;;;12.77;;
19828;SDS011;10075;50.924;4.396;2022-12-07T04:46:21;18.37;;;12.77;;
19828;SDS011;10075;50.924;4.396;2022-12-07T04:48:49;19.03;;;12.50;;
19828;SDS011;10075;50.924;4.396;2022-12-07T04:51:17;26.50;;;14.33;;
19828;SDS011;10075;50.924;4.396;2022-12-07T04:53:47;27.37;;;15.47;;
19828;SDS011;10075;50.924;4.396;2022-12-07T04:56:15;26.30;;;14.83;;
19828;SDS011;10075;50.924;4.396;2022-12-07T04:58:43;26.57;;;13.17;;
19828;SDS011;10075;50.924;4.396;2022-12-07T05:01:11;25.13;;;13.93;;
19828;SDS011;10075;50.924;4.396;2022-12-07T05:03:38;23.00;;;14.83;;
19828;SDS011;10075;50.924;4.396;2022-12-07T05:06:06;25.27;;;15.00;;
19828;SDS011;10075;50.924;4.396;2022-12-07T05:08:34;28.43;;;14.87;;
19828;SDS011;10075;50.924;4.396;2022-12-07T05:11:03;23.07;;;14.70;;
19828;SDS011;10075;50.924;4.396;2022-12-07T05:13:31;22.73;;;13.37;;
19828;SDS011;10075;50.924;4.396;2022-12-07T05:15:58;21.87;;;13.47;;
19828;SDS011;10075;50.924;4.396;2022-12-07T05:18:25;21.90;;;13.60;;
19828;SDS011;10075;50.924;4.396;2022-12-07T05:20:53;30.50;;;15.17;;
19828;SDS011;10075;50.924;4.396;2022-12-07T05:23:20;23.23;;;14.67;;
19828;SDS011;10075;50.924;4.396;2022-12-07T05:25:47;23.33;;;13.47;;
19828;SDS011;10075;50.924;4.396;2022-12-07T05:28:15;25.03;;;13.00;;
19828;SDS011;10075;50.924;4.396;2022-12-07T05:30:42;23.47;;;13.30;;
19828;SDS011;10075;50.924;4.396;2022-12-07T05:33:09;22.50;;;13.10;;
19828;SDS011;10075;50.924;4.396;2022-12-07T05:35:36;26.63;;;13.70;;
19828;SDS011;10075;50.924;4.396;2022-12-07T05:38:03;24.70;;;12.90;;
19828;SDS011;10075;50.924;4.396;2022-12-07T05:40:30;21.53;;;12.77;;
19828;SDS011;10075;50.924;4.396;2022-12-07T05:42:57;20.40;;;12.27;;
19828;SDS011;10075;50.924;4.396;2022-12-07T05:45:26;18.20;;;11.03;;
19828;SDS011;10075;50.924;4.396;2022-12-07T05:47:53;20.37;;;11.97;;
19828;SDS011;10075;50.924;4.396;2022-12-07T05:50:20;23.17;;;10.27;;
19828;SDS011;10075;50.924;4.396;2022-12-07T05:52:47;16.70;;;10.20;;
19828;SDS011;10075;50.924;4.396;2022-12-07T05:55:14;20.10;;;11.53;;
19828;SDS011;10075;50.924;4.396;2022-12-07T05:57:41;18.87;;;12.57;;
19828;SDS011;10075;50.924;4.396;2022-12-07T06:00:30;18.40;;;10.90;;
19828;SDS011;10075;50.924;4.396;2022-12-07T06:02:56;14.47;;;10.47;;
19828;SDS011;10075;50.924;4.396;2022-12-07T06:05:24;17.37;;;10.33;;
19828;SDS011;10075;50.924;4.396;2022-12-07T06:07:51;14.83;;;10.17;;
19828;SDS011;10075;50.924;4.396;2022-12-07T06:10:18;15.50;;;10.03;;
19828;SDS011;10075;50.924;4.396;2022-12-07T06:12:45;15.47;;;10.57;;
19828;SDS011;10075;50.924;4.396;2022-12-07T06:15:11;14.70;;;9.57;;
19828;SDS011;10075;50.924;4.396;2022-12-07T06:17:41;16.83;;;9.93;;
19828;SDS011;10075;50.924;4.396;2022-12-07T06:20:08;18.23;;;9.87;;
19828;SDS011;10075;50.924;4.396;2022-12-07T06:22:35;12.20;;;9.60;;
19828;SDS011;10075;50.924;4.396;2022-12-07T06:25:02;23.00;;;10.47;;
19828;SDS011;10075;50.924;4.396;2022-12-07T06:27:30;20.37;;;10.60;;
19828;SDS011;10075;50.924;4.396;2022-12-07T06:29:58;18.50;;;11.17;;
19828;SDS011;10075;50.924;4.396;2022-12-07T06:32:30;20.47;;;10.27;;
19828;SDS011;10075;50.924;4.396;2022-12-07T06:34:59;17.03;;;9.80;;
19828;SDS011;10075;50.924;4.396;2022-12-07T06:37:26;16.60;;;9.50;;
19828;SDS011;10075;50.924;4.396;2022-12-07T06:39:53;17.53;;;11.07;;
19828;SDS011;10075;50.924;4.396;2022-12-07T06:42:20;21.13;;;10.70;;
19828;SDS011;10075;50.924;4.396;2022-12-07T06:44:47;17.83;;;9.77;;
19828;SDS011;10075;50.924;4.396;2022-12-07T06:47:14;16.80;;;8.93;;
19828;SDS011;10075;50.924;4.396;2022-12-07T06:49:41;17.33;;;8.97;;
19828;SDS011;10075;50.924;4.396;2022-12-07T06:52:09;16.77;;;9.53;;
19828;SDS011;10075;50.924;4.396;2022-12-07T06:54:36;17.23;;;10.30;;
19828;SDS011;10075;50.924;4.396;2022-12-07T06:57:03;16.87;;;10.40;;
19828;SDS011;10075;50.924;4.396;2022-12-07T06:59:30;15.30;;;9.10;;
19828;SDS011;10075;50.924;4.396;2022-12-07T07:01:57;13.33;;;9.03;;
19828;SDS011;10075;50.924;4.396;2022-12-07T07:04:25;17.57;;;10.33;;
19828;SDS011;10075;50.924;4.396;2022-12-07T07:06:51;18.60;;;9.97;;
19828;SDS011;10075;50.924;4.396;2022-12-07T07:09:20;17.03;;;10.23;;
19828;SDS011;10075;50.924;4.396;2022-12-07T07:11:47;20.87;;;11.13;;
19828;SDS011;10075;50.924;4.396;2022-12-07T07:14:14;22.07;;;11.20;;
19828;SDS011;10075;50.924;4.396;2022-12-07T07:16:44;15.70;;;9.23;;
19828;SDS011;10075;50.924;4.396;2022-12-07T07:19:12;21.33;;;11.57;;
19828;SDS011;10075;50.924;4.396;2022-12-07T07:21:39;20.10;;;9.87;;
19828;SDS011;10075;50.924;4.396;2022-12-07T07:24:06;18.53;;;10.43;;
19828;SDS011;10075;50.924;4.396;2022-12-07T07:26:35;17.03;;;10.80;;
19828;SDS011;10075;50.924;4.396;2022-12-07T07:29:02;22.13;;;10.87;;
19828;SDS011;10075;50.924;4.396;2022-12-07T07:31:29;26.87;;;13.17;;
19828;SDS011;10075;50.924;4.396;2022-12-07T07:33:56;22.67;;;13.23;;
19828;SDS011;10075;50.924;4.396;2022-12-07T07:36:23;27.17;;;15.60;;
19828;SDS011;10075;50.924;4.396;2022-12-07T07:38:50;32.17;;;16.93;;
19828;SDS011;10075;50.924;4.396;2022-12-07T07:41:17;26.40;;;13.47;;
19828;SDS011;10075;50.924;4.396;2022-12-07T07:43:46;25.80;;;14.50;;
19828;SDS011;10075;50.924;4.396;2022-12-07T07:46:13;23.73;;;14.13;;
19828;SDS011;10075;50.924;4.396;2022-12-07T07:48:40;22.60;;;13.43;;
19828;SDS011;10075;50.924;4.396;2022-12-07T07:51:07;20.90;;;13.47;;
19828;SDS011;10075;50.924;4.396;2022-12-07T07:53:34;27.60;;;16.07;;
19828;SDS011;10075;50.924;4.396;2022-12-07T07:56:01;23.13;;;15.03;;
19828;SDS011;10075;50.924;4.396;2022-12-07T07:58:29;25.63;;;14.23;;
19828;SDS011;10075;50.924;4.396;2022-12-07T08:00:57;23.83;;;15.00;;
19828;SDS011;10075;50.924;4.396;2022-12-07T08:03:30;31.30;;;15.80;;
19828;SDS011;10075;50.924;4.396;2022-12-07T08:05:57;23.93;;;15.33;;
19828;SDS011;10075;50.924;4.396;2022-12-07T08:08:24;22.10;;;14.13;;
19828;SDS011;10075;50.924;4.396;2022-12-07T08:10:51;24.90;;;14.83;;
19828;SDS011;10075;50.924;4.396;2022-12-07T08:13:18;21.50;;;14.83;;
19828;SDS011;10075;50.924;4.396;2022-12-07T08:15:46;26.67;;;13.93;;
19828;SDS011;10075;50.924;4.396;2022-12-07T08:18:15;25.07;;;14.17;;
19828;SDS011;10075;50.924;4.396;2022-12-07T08:20:42;23.10;;;13.90;;
19828;SDS011;10075;50.924;4.396;2022-12-07T08:23:10;23.63;;;13.57;;
19828;SDS011;10075;50.924;4.396;2022-12-07T08:25:37;23.30;;;12.90;;
19828;SDS011;10075;50.924;4.396;2022-12-07T08:28:05;21.47;;;13.47;;
19828;SDS011;10075;50.924;4.396;2022-12-07T08:30:32;24.23;;;12.57;;
19828;SDS011;10075;50.924;4.396;2022-12-07T08:33:00;26.57;;;11.90;;
19828;SDS011;10075;50.924;4.396;2022-12-07T08:35:28;17.57;;;10.70;;
19828;SDS011;10075;50.924;4.396;2022-12-07T08:37:55;19.10;;;11.47;;
19828;SDS011;10075;50.924;4.396;2022-12-07T08:40:23;23.80;;;12.23;;
19828;SDS011;10075;50.924;4.396;2022-12-07T08:42:50;20.97;;;11.10;;
19828;SDS011;10075;50.924;4.396;2022-12-07T08:45:18;15.93;;;9.50;;
19828;SDS011;10075;50.924;4.396;2022-12-07T08:47:46;20.67;;;9.73;;
19828;SDS011;10075;50.924;4.396;2022-12-07T08:50:17;20.43;;;9.47;;
19828;SDS011;10075;50.924;4.396;2022-12-07T08:52:45;18.50;;;9.13;;
19828;SDS011;10075;50.924;4.396;2022-12-07T08:55:17;13.03;;;7.60;;
19828;SDS011;10075;50.924;4.396;2022-12-07T08:57:44;16.30;;;7.63;;
19828;SDS011;10075;50.924;4.396;2022-12-07T09:00:12;13.67;;;7.67;;
19828;SDS011;10075;50.924;4.396;2022-12-07T09:02:41;12.03;;;7.93;;
19828;SDS011;10075;50.924;4.396;2022-12-07T09:05:09;12.10;;;7.37;;
19828;SDS011;10075;50.924;4.396;2022-12-07T09:07:36;16.03;;;7.13;;
19828;SDS011;10075;50.924;4.396;2022-12-07T09:10:06;12.07;;;6.37;;
19828;SDS011;10075;50.924;4.396;2022-12-07T09:12:34;17.20;;;6.77;;
19828;SDS011;10075;50.924;4.396;2022-12-07T09:15:01;11.13;;;5.93;;
19828;SDS011;10075;50.924;4.396;2022-12-07T09:17:31;12.77;;;5.53;;
19828;SDS011;10075;50.924;4.396;2022-12-07T09:19:58;11.27;;;5.70;;
19828;SDS011;10075;50.924;4.396;2022-12-07T09:22:28;15.13;;;6.60;;
19828;SDS011;10075;50.924;4.396;2022-12-07T09:24:55;11.73;;;5.60;;
19828;SDS011;10075;50.924;4.396;2022-12-07T09:27:24;15.87;;;6.20;;
19828;SDS011;10075;50.924;4.396;2022-12-07T09:29:51;9.13;;;5.87;;
19828;SDS011;10075;50.924;4.396;2022-12-07T09:32:18;21.50;;;9.27;;
19828;SDS011;10075;50.924;4.396;2022-12-07T09:34:46;14.00;;;8.20;;
19828;SDS011;10075;50.924;4.396;2022-12-07T09:37:13;13.43;;;6.50;;
19828;SDS011;10075;50.924;4.396;2022-12-07T09:39:40;13.53;;;6.43;;
19828;SDS011;10075;50.924;4.396;2022-12-07T09:42:08;13.17;;;6.73;;
19828;SDS011;10075;50.924;4.396;2022-12-07T09:44:41;16.27;;;9.93;;
19828;SDS011;10075;50.924;4.396;2022-12-07T09:47:08;16.47;;;7.73;;
19828;SDS011;10075;50.924;4.396;2022-12-07T09:49:36;11.27;;;6.27;;
19828;SDS011;10075;50.924;4.396;2022-12-07T09:52:16;15.70;;;7.10;;
19828;SDS011;10075;50.924;4.396;2022-12-07T09:54:46;8.53;;;6.40;;
19828;SDS011;10075;50.924;4.396;2022-12-07T09:57:15;13.50;;;6.27;;
19828;SDS011;10075;50.924;4.396;2022-12-07T09:59:45;11.93;;;6.00;;
19828;SDS011;10075;50.924;4.396;2022-12-07T10:02:22;13.73;;;6.10;;
19828;SDS011;10075;50.924;4.396;2022-12-07T10:04:52;11.47;;;5.67;;
19828;SDS011;10075;50.924;4.396;2022-12-07T10:07:20;9.83;;;5.60;;
19828;SDS011;10075;50.924;4.396;2022-12-07T10:09:47;9.40;;;5.30;;
19828;SDS011;10075;50.924;4.396;2022-12-07T10:12:14;7.80;;;4.80;;
19828;SDS011;10075;50.924;4.396;2022-12-07T10:14:54;17.20;;;6.40;;
19828;SDS011;10075;50.924;4.396;2022-12-07T10:17:28;12.33;;;5.77;;
19828;SDS011;10075;50.924;4.396;2022-12-07T10:20:17;14.00;;;6.30;;
19828;SDS011;10075;50.924;4.396;2022-12-07T10:22:57;11.97;;;6.87;;
19828;SDS011;10075;50.924;4.396;2022-12-07T10:25:29;11.50;;;6.17;;
19828;SDS011;10075;50.924;4.396;2022-12-07T10:28:00;12.77;;;6.17;;
19828;SDS011;10075;50.924;4.396;2022-12-07T10:30:45;10.20;;;5.97;;
19828;SDS011;10075;50.924;4.396;2022-12-07T10:33:18;13.33;;;7.17;;
19828;SDS011;10075;50.924;4.396;2022-12-07T10:35:58;12.27;;;6.87;;
19828;SDS011;10075;50.924;4.396;2022-12-07T10:38:26;12.27;;;7.03;;
19828;SDS011;10075;50.924;4.396;2022-12-07T10:41:03;13.13;;;7.03;;
19828;SDS011;10075;50.924;4.396;2022-12-07T10:43:31;12.40;;;7.07;;
19828;SDS011;10075;50.924;4.396;2022-12-07T10:49:06;15.57;;;7.87;;
19828;SDS011;10075;50.924;4.396;2022-12-07T10:51:47;13.73;;;7.67;;
19828;SDS011;10075;50.924;4.396;2022-12-07T10:54:22;16.30;;;7.73;;
19828;SDS011;10075;50.924;4.396;2022-12-07T10:57:00;13.30;;;6.13;;
19828;SDS011;10075;50.924;4.396;2022-12-07T11:02:38;13.87;;;5.73;;
19828;SDS011;10075;50.924;4.396;2022-12-07T11:05:19;12.87;;;6.97;;
19828;SDS011;10075;50.924;4.396;2022-12-07T11:07:57;13.80;;;6.53;;
19828;SDS011;10075;50.924;4.396;2022-12-07T11:10:31;11.53;;;6.07;;
19828;SDS011;10075;50.924;4.396;2022-12-07T11:13:20;10.00;;;5.80;;
19828;SDS011;10075;50.924;4.396;2022-12-07T11:16:02;12.90;;;6.40;;
19828;SDS011;10075;50.924;4.396;2022-12-07T11:18:48;10.73;;;5.80;;
19828;SDS011;10075;50.924;4.396;2022-12-07T11:21:27;8.70;;;5.23;;
19828;SDS011;10075;50.924;4.396;2022-12-07T11:24:01;11.50;;;6.20;;
19828;SDS011;10075;50.924;4.396;2022-12-07T11:26:36;9.80;;;5.97;;
19828;SDS011;10075;50.924;4.396;2022-12-07T11:29:25;11.00;;;5.93;;
19828;SDS011;10075;50.924;4.396;2022-12-07T11:32:04;12.80;;;4.67;;
19828;SDS011;10075;50.924;4.396;2022-12-07T11:34:42;10.63;;;5.10;;
19828;SDS011;10075;50.924;4.396;2022-12-07T11:37:19;14.03;;;5.03;;
19828;SDS011;10075;50.924;4.396;2022-12-07T11:39:52;8.87;;;4.43;;
19828;SDS011;10075;50.924;4.396;2022-12-07T11:42:26;12.87;;;4.27;;
19828;SDS011;10075;50.924;4.396;2022-12-07T11:44:56;10.20;;;4.10;;
19828;SDS011;10075;50.924;4.396;2022-12-07T11:47:30;13.77;;;4.20;;
19828;SDS011;10075;50.924;4.396;2022-12-07T11:50:05;8.10;;;4.20;;
19828;SDS011;10075;50.924;4.396;2022-12-07T11:52:56;9.23;;;4.30;;
19828;SDS011;10075;50.924;4.396;2022-12-07T11:55:26;11.07;;;4.23;;
19828;SDS011;10075;50.924;4.396;2022-12-07T11:58:04;9.63;;;3.87;;
19828;SDS011;10075;50.924;4.396;2022-12-07T12:00:42;16.67;;;9.37;;
19828;SDS011;10075;50.924;4.396;2022-12-07T12:03:10;12.07;;;8.00;;
19828;SDS011;10075;50.924;4.396;2022-12-07T12:05:41;13.90;;;6.60;;
19828;SDS011;10075;50.924;4.396;2022-12-07T12:08:13;8.60;;;5.00;;
19828;SDS011;10075;50.924;4.396;2022-12-07T12:10:47;10.30;;;4.30;;
19828;SDS011;10075;50.924;4.396;2022-12-07T12:16:19;8.87;;;4.30;;
19828;SDS011;10075;50.924;4.396;2022-12-07T12:19:01;5.83;;;3.40;;
19828;SDS011;10075;50.924;4.396;2022-12-07T12:21:40;8.67;;;4.67;;
19828;SDS011;10075;50.924;4.396;2022-12-07T12:24:11;6.40;;;3.73;;
19828;SDS011;10075;50.924;4.396;2022-12-07T12:26:47;11.47;;;3.70;;
19828;SDS011;10075;50.924;4.396;2022-12-07T12:29:21;6.43;;;2.90;;
19828;SDS011;10075;50.924;4.396;2022-12-07T12:32:10;9.40;;;3.10;;
19828;SDS011;10075;50.924;4.396;2022-12-07T12:34:57;7.97;;;3.40;;
19828;SDS011;10075;50.924;4.396;2022-12-07T12:55:16;6.40;;;1.80;;
19828;SDS011;10075;50.924;4.396;2022-12-07T13:10:20;7.73;;;2.60;;
19828;SDS011;10075;50.924;4.396;2022-12-07T13:12:58;6.97;;;2.33;;
19828;SDS011;10075;50.924;4.396;2022-12-07T13:15:34;6.97;;;2.53;;
19828;SDS011;10075;50.924;4.396;2022-12-07T13:18:03;3.60;;;1.57;;
19828;SDS011;10075;50.924;4.396;2022-12-07T13:20:55;6.87;;;1.30;;
19828;SDS011;10075;50.924;4.396;2022-12-07T13:23:27;3.33;;;1.60;;
19828;SDS011;10075;50.924;4.396;2022-12-07T13:26:01;3.63;;;1.30;;
19828;SDS011;10075;50.924;4.396;2022-12-07T13:28:36;6.17;;;1.63;;
19828;SDS011;10075;50.924;4.396;2022-12-07T13:31:12;4.90;;;1.70;;
19828;SDS011;10075;50.924;4.396;2022-12-07T13:33:45;8.13;;;1.63;;
19828;SDS011;10075;50.924;4.396;2022-12-07T13:36:21;6.63;;;2.10;;
19828;SDS011;10075;50.924;4.396;2022-12-07T13:38:54;4.23;;;1.47;;
19828;SDS011;10075;50.924;4.396;2022-12-07T13:41:23;3.13;;;1.67;;
19828;SDS011;10075;50.924;4.396;2022-12-07T13:43:53;6.27;;;1.90;;
19828;SDS011;10075;50.924;4.396;2022-12-07T13:46:35;5.13;;;2.17;;
19828;SDS011;10075;50.924;4.396;2022-12-07T13:49:16;6.37;;;1.90;;
19828;SDS011;10075;50.924;4.396;2022-12-07T13:51:46;5.53;;;1.73;;
19828;SDS011;10075;50.924;4.396;2022-12-07T13:54:13;5.03;;;1.70;;
19828;SDS011;10075;50.924;4.396;2022-12-07T13:56:41;4.87;;;1.50;;
19828;SDS011;10075;50.924;4.396;2022-12-07T13:59:15;5.57;;;2.40;;
19828;SDS011;10075;50.924;4.396;2022-12-07T14:01:47;5.10;;;2.67;;
19828;SDS011;10075;50.924;4.396;2022-12-07T14:04:29;10.60;;;3.43;;
19828;SDS011;10075;50.924;4.396;2022-12-07T14:06:59;4.40;;;3.00;;
19828;SDS011;10075;50.924;4.396;2022-12-07T14:09:28;3.77;;;2.97;;
19828;SDS011;10075;50.924;4.396;2022-12-07T14:11:56;6.57;;;3.80;;
19828;SDS011;10075;50.924;4.396;2022-12-07T14:14:25;5.67;;;4.13;;
19828;SDS011;10075;50.924;4.396;2022-12-07T14:16:57;7.50;;;4.00;;
19828;SDS011;10075;50.924;4.396;2022-12-07T14:19:43;6.07;;;3.80;;
19828;SDS011;10075;50.924;4.396;2022-12-07T14:22:20;7.17;;;4.67;;
19828;SDS011;10075;50.924;4.396;2022-12-07T14:24:58;9.50;;;4.23;;
19828;SDS011;10075;50.924;4.396;2022-12-07T14:27:30;9.67;;;5.30;;
19828;SDS011;10075;50.924;4.396;2022-12-07T14:29:59;7.90;;;4.70;;
19828;SDS011;10075;50.924;4.396;2022-12-07T14:32:29;9.03;;;5.07;;
19828;SDS011;10075;50.924;4.396;2022-12-07T14:34:58;7.70;;;5.03;;
19828;SDS011;10075;50.924;4.396;2022-12-07T14:37:27;6.27;;;5.17;;
19828;SDS011;10075;50.924;4.396;2022-12-07T14:39:55;12.47;;;5.73;;
19828;SDS011;10075;50.924;4.396;2022-12-07T14:42:23;10.30;;;5.47;;
19828;SDS011;10075;50.924;4.396;2022-12-07T14:44:54;6.90;;;5.60;;
19828;SDS011;10075;50.924;4.396;2022-12-07T14:47:22;13.20;;;6.63;;
19828;SDS011;10075;50.924;4.396;2022-12-07T14:49:50;8.07;;;4.70;;
19828;SDS011;10075;50.924;4.396;2022-12-07T14:52:18;8.80;;;5.77;;
19828;SDS011;10075;50.924;4.396;2022-12-07T14:54:48;12.23;;;6.50;;
19828;SDS011;10075;50.924;4.396;2022-12-07T14:57:15;10.10;;;5.70;;
19828;SDS011;10075;50.924;4.396;2022-12-07T14:59:42;10.70;;;5.57;;
19828;SDS011;10075;50.924;4.396;2022-12-07T15:02:09;13.53;;;6.27;;
19828;SDS011;10075;50.924;4.396;2022-12-07T15:04:38;11.40;;;5.10;;
19828;SDS011;10075;50.924;4.396;2022-12-07T15:07:09;12.40;;;5.40;;
19828;SDS011;10075;50.924;4.396;2022-12-07T15:09:41;13.50;;;6.30;;
19828;SDS011;10075;50.924;4.396;2022-12-07T15:12:08;10.87;;;5.27;;
19828;SDS011;10075;50.924;4.396;2022-12-07T15:14:35;7.83;;;4.37;;
19828;SDS011;10075;50.924;4.396;2022-12-07T15:17:02;8.23;;;4.73;;
19828;SDS011;10075;50.924;4.396;2022-12-07T15:19:29;9.17;;;4.80;;
19828;SDS011;10075;50.924;4.396;2022-12-07T15:21:56;12.07;;;5.93;;
19828;SDS011;10075;50.924;4.396;2022-12-07T15:24:26;9.80;;;5.60;;
19828;SDS011;10075;50.924;4.396;2022-12-07T15:26:54;14.07;;;7.03;;
19828;SDS011;10075;50.924;4.396;2022-12-07T15:29:21;8.87;;;6.20;;